sensor_id;sensor_type;location;lat;lon;timestamp;P1;durP1;ratioP1;P2;durP2;ratioP2
11004;SDS011;5555;59.622;16.556;2023-09-19T00:01:07;8.73;;;5.83;;
11004;SDS011;5555;59.622;16.556;2023-09-19T00:03:34;7.33;;;6.20;;
11004;SDS011;5555;59.622;16.556;2023-09-19T00:06:03;9.50;;;6.17;;
11004;SDS011;5555;59.622;16.556;2023-09-19T00:08:33;10.13;;;6.20;;
11004;SDS011;5555;59.622;16.556;2023-09-19T00:10:59;8.40;;;6.90;;
11004;SDS011;5555;59.622;16.556;2023-09-19T00:13:30;7.80;;;6.60;;
11004;SDS011;5555;59.622;16.556;2023-09-19T00:15:56;8.33;;;7.10;;
11004;SDS011;5555;59.622;16.556;2023-09-19T00:18:23;9.93;;;7.00;;
11004;SDS011;5555;59.622;16.556;2023-09-19T00:20:56;8.97;;;7.63;;
11004;SDS011;5555;59.622;16.556;2023-09-19T00:23:22;8.40;;;7.60;;
11004;SDS011;5555;59.622;16.556;2023-09-19T00:25:49;11.13;;;7.50;;
11004;SDS011;5555;59.622;16.556;2023-09-19T00:28:16;11.07;;;7.67;;
11004;SDS011;5555;59.622;16.556;2023-09-19T00:30:43;10.73;;;8.13;;
11004;SDS011;5555;59.622;16.556;2023-09-19T00:33:10;15.67;;;8.33;;
11004;SDS011;5555;59.622;16.556;2023-09-19T00:35:46;10.77;;;9.03;;
11004;SDS011;5555;59.622;16.556;2023-09-19T00:38:13;12.73;;;8.53;;
11004;SDS011;5555;59.622;16.556;2023-09-19T00:40:43;10.40;;;8.70;;
11004;SDS011;5555;59.622;16.556;2023-09-19T00:43:09;10.67;;;8.30;;
11004;SDS011;5555;59.622;16.556;2023-09-19T00:45:35;11.07;;;9.27;;
11004;SDS011;5555;59.622;16.556;2023-09-19T00:48:03;12.73;;;9.47;;
11004;SDS011;5555;59.622;16.556;2023-09-19T00:50:31;10.17;;;9.17;;
11004;SDS011;5555;59.622;16.556;2023-09-19T00:52:57;10.60;;;9.53;;
11004;SDS011;5555;59.622;16.556;2023-09-19T00:55:24;11.83;;;9.47;;
11004;SDS011;5555;59.622;16.556;2023-09-19T00:57:51;12.37;;;9.13;;
11004;SDS011;5555;59.622;16.556;2023-09-19T01:00:17;12.93;;;10.70;;
11004;SDS011;5555;59.622;16.556;2023-09-19T01:02:45;14.23;;;10.77;;
11004;SDS011;5555;59.622;16.556;2023-09-19T01:05:11;13.33;;;9.60;;
11004;SDS011;5555;59.622;16.556;2023-09-19T01:07:41;16.47;;;9.83;;
11004;SDS011;5555;59.622;16.556;2023-09-19T01:10:10;11.80;;;10.50;;
11004;SDS011;5555;59.622;16.556;2023-09-19T01:20:53;13.57;;;11.90;;
11004;SDS011;5555;59.622;16.556;2023-09-19T01:24:00;16.13;;;12.87;;
11004;SDS011;5555;59.622;16.556;2023-09-19T01:29:44;19.20;;;15.00;;
11004;SDS011;5555;59.622;16.556;2023-09-19T01:32:13;17.80;;;15.50;;
11004;SDS011;5555;59.622;16.556;2023-09-19T01:34:47;17.93;;;16.17;;
11004;SDS011;5555;59.622;16.556;2023-09-19T01:37:14;18.50;;;16.57;;
11004;SDS011;5555;59.622;16.556;2023-09-19T01:39:44;20.13;;;17.33;;
11004;SDS011;5555;59.622;16.556;2023-09-19T01:45:17;21.07;;;16.90;;
11004;SDS011;5555;59.622;16.556;2023-09-19T01:47:50;18.97;;;16.60;;
11004;SDS011;5555;59.622;16.556;2023-09-19T01:55:35;20.87;;;18.67;;
11004;SDS011;5555;59.622;16.556;2023-09-19T01:58:09;21.00;;;19.00;;
11004;SDS011;5555;59.622;16.556;2023-09-19T02:00:37;25.03;;;19.17;;
11004;SDS011;5555;59.622;16.556;2023-09-19T02:03:08;21.73;;;18.83;;
11004;SDS011;5555;59.622;16.556;2023-09-19T02:05:35;22.40;;;20.10;;
11004;SDS011;5555;59.622;16.556;2023-09-19T02:08:00;24.00;;;21.47;;
11004;SDS011;5555;59.622;16.556;2023-09-19T02:10:26;26.23;;;20.73;;
11004;SDS011;5555;59.622;16.556;2023-09-19T02:12:52;24.83;;;22.23;;
11004;SDS011;5555;59.622;16.556;2023-09-19T02:15:17;29.00;;;22.10;;
11004;SDS011;5555;59.622;16.556;2023-09-19T02:17:44;30.33;;;23.07;;
11004;SDS011;5555;59.622;16.556;2023-09-19T02:20:11;34.37;;;25.00;;
11004;SDS011;5555;59.622;16.556;2023-09-19T02:22:39;36.17;;;23.47;;
11004;SDS011;5555;59.622;16.556;2023-09-19T02:25:09;32.70;;;23.93;;
11004;SDS011;5555;59.622;16.556;2023-09-19T02:27:35;49.70;;;29.40;;
11004;SDS011;5555;59.622;16.556;2023-09-19T02:30:02;31.70;;;25.90;;
11004;SDS011;5555;59.622;16.556;2023-09-19T02:32:29;35.07;;;26.50;;
11004;SDS011;5555;59.622;16.556;2023-09-19T02:34:56;40.33;;;28.30;;
11004;SDS011;5555;59.622;16.556;2023-09-19T02:37:23;31.67;;;25.60;;
11004;SDS011;5555;59.622;16.556;2023-09-19T02:39:48;29.20;;;25.33;;
11004;SDS011;5555;59.622;16.556;2023-09-19T02:42:14;38.53;;;29.80;;
11004;SDS011;5555;59.622;16.556;2023-09-19T02:44:39;43.37;;;31.13;;
11004;SDS011;5555;59.622;16.556;2023-09-19T02:47:05;58.43;;;37.37;;
11004;SDS011;5555;59.622;16.556;2023-09-19T02:49:31;41.27;;;32.37;;
11004;SDS011;5555;59.622;16.556;2023-09-19T02:51:57;44.40;;;31.20;;
11004;SDS011;5555;59.622;16.556;2023-09-19T02:54:24;59.00;;;35.57;;
11004;SDS011;5555;59.622;16.556;2023-09-19T02:56:49;46.70;;;31.17;;
11004;SDS011;5555;59.622;16.556;2023-09-19T02:59:15;43.57;;;31.23;;
11004;SDS011;5555;59.622;16.556;2023-09-19T03:01:42;53.50;;;31.70;;
11004;SDS011;5555;59.622;16.556;2023-09-19T03:04:08;47.07;;;32.77;;
11004;SDS011;5555;59.622;16.556;2023-09-19T03:06:36;49.63;;;34.40;;
11004;SDS011;5555;59.622;16.556;2023-09-19T03:09:03;52.20;;;35.60;;
11004;SDS011;5555;59.622;16.556;2023-09-19T03:11:31;60.23;;;36.47;;
11004;SDS011;5555;59.622;16.556;2023-09-19T03:13:56;44.17;;;33.30;;
11004;SDS011;5555;59.622;16.556;2023-09-19T03:16:23;60.10;;;38.00;;
11004;SDS011;5555;59.622;16.556;2023-09-19T03:18:49;55.63;;;35.77;;
11004;SDS011;5555;59.622;16.556;2023-09-19T03:21:15;67.03;;;36.73;;
11004;SDS011;5555;59.622;16.556;2023-09-19T03:23:42;60.07;;;36.97;;
11004;SDS011;5555;59.622;16.556;2023-09-19T03:26:10;77.20;;;45.13;;
11004;SDS011;5555;59.622;16.556;2023-09-19T03:28:37;67.83;;;41.70;;
11004;SDS011;5555;59.622;16.556;2023-09-19T03:31:04;61.20;;;42.13;;
11004;SDS011;5555;59.622;16.556;2023-09-19T03:33:31;58.87;;;41.80;;
11004;SDS011;5555;59.622;16.556;2023-09-19T03:35:58;67.50;;;43.73;;
11004;SDS011;5555;59.622;16.556;2023-09-19T03:38:24;56.63;;;40.03;;
11004;SDS011;5555;59.622;16.556;2023-09-19T03:40:50;64.03;;;42.57;;
11004;SDS011;5555;59.622;16.556;2023-09-19T03:43:16;47.20;;;38.23;;
11004;SDS011;5555;59.622;16.556;2023-09-19T03:45:42;50.10;;;38.77;;
11004;SDS011;5555;59.622;16.556;2023-09-19T03:48:11;49.23;;;38.00;;
11004;SDS011;5555;59.622;16.556;2023-09-19T03:50:36;88.93;;;49.90;;
11004;SDS011;5555;59.622;16.556;2023-09-19T03:53:02;79.67;;;46.30;;
11004;SDS011;5555;59.622;16.556;2023-09-19T03:55:28;66.67;;;44.27;;
11004;SDS011;5555;59.622;16.556;2023-09-19T03:57:57;56.10;;;41.60;;
11004;SDS011;5555;59.622;16.556;2023-09-19T04:00:23;54.07;;;43.20;;
11004;SDS011;5555;59.622;16.556;2023-09-19T04:02:51;57.60;;;43.67;;
11004;SDS011;5555;59.622;16.556;2023-09-19T04:05:17;47.67;;;41.73;;
11004;SDS011;5555;59.622;16.556;2023-09-19T04:07:43;50.53;;;42.60;;
11004;SDS011;5555;59.622;16.556;2023-09-19T04:10:10;52.10;;;43.27;;
11004;SDS011;5555;59.622;16.556;2023-09-19T04:12:39;55.80;;;43.60;;
11004;SDS011;5555;59.622;16.556;2023-09-19T04:15:05;56.27;;;44.93;;
11004;SDS011;5555;59.622;16.556;2023-09-19T04:17:31;56.53;;;46.53;;
11004;SDS011;5555;59.622;16.556;2023-09-19T04:20:00;61.80;;;48.53;;
11004;SDS011;5555;59.622;16.556;2023-09-19T04:22:26;76.00;;;54.43;;
11004;SDS011;5555;59.622;16.556;2023-09-19T04:24:51;55.17;;;46.57;;
11004;SDS011;5555;59.622;16.556;2023-09-19T04:27:17;68.50;;;52.17;;
11004;SDS011;5555;59.622;16.556;2023-09-19T04:29:43;83.43;;;55.83;;
11004;SDS011;5555;59.622;16.556;2023-09-19T04:32:09;67.50;;;54.87;;
11004;SDS011;5555;59.622;16.556;2023-09-19T04:34:35;77.37;;;53.83;;
11004;SDS011;5555;59.622;16.556;2023-09-19T04:37:03;72.07;;;54.17;;
11004;SDS011;5555;59.622;16.556;2023-09-19T04:39:29;78.53;;;58.70;;
11004;SDS011;5555;59.622;16.556;2023-09-19T04:41:54;73.57;;;56.23;;
11004;SDS011;5555;59.622;16.556;2023-09-19T04:44:20;73.20;;;54.57;;
11004;SDS011;5555;59.622;16.556;2023-09-19T04:46:46;66.97;;;55.07;;
11004;SDS011;5555;59.622;16.556;2023-09-19T04:49:12;65.87;;;55.53;;
11004;SDS011;5555;59.622;16.556;2023-09-19T04:51:38;63.77;;;52.63;;
11004;SDS011;5555;59.622;16.556;2023-09-19T04:54:04;65.57;;;54.23;;
11004;SDS011;5555;59.622;16.556;2023-09-19T04:56:30;76.17;;;57.77;;
11004;SDS011;5555;59.622;16.556;2023-09-19T04:58:57;89.33;;;58.77;;
11004;SDS011;5555;59.622;16.556;2023-09-19T05:01:24;74.60;;;55.33;;
11004;SDS011;5555;59.622;16.556;2023-09-19T05:03:54;98.20;;;61.07;;
11004;SDS011;5555;59.622;16.556;2023-09-19T05:06:20;76.47;;;58.07;;
11004;SDS011;5555;59.622;16.556;2023-09-19T05:08:46;61.27;;;51.57;;
11004;SDS011;5555;59.622;16.556;2023-09-19T05:11:20;75.50;;;54.03;;
11004;SDS011;5555;59.622;16.556;2023-09-19T05:13:47;82.47;;;55.73;;
11004;SDS011;5555;59.622;16.556;2023-09-19T05:16:15;64.90;;;52.30;;
11004;SDS011;5555;59.622;16.556;2023-09-19T05:18:41;75.13;;;55.90;;
11004;SDS011;5555;59.622;16.556;2023-09-19T05:21:07;79.20;;;54.80;;
11004;SDS011;5555;59.622;16.556;2023-09-19T05:23:32;69.60;;;53.57;;
11004;SDS011;5555;59.622;16.556;2023-09-19T05:25:58;77.63;;;56.07;;
11004;SDS011;5555;59.622;16.556;2023-09-19T05:28:25;61.57;;;51.13;;
11004;SDS011;5555;59.622;16.556;2023-09-19T05:30:52;78.60;;;57.13;;
11004;SDS011;5555;59.622;16.556;2023-09-19T05:33:18;70.90;;;53.00;;
11004;SDS011;5555;59.622;16.556;2023-09-19T05:35:44;70.07;;;51.20;;
11004;SDS011;5555;59.622;16.556;2023-09-19T05:38:12;75.37;;;55.40;;
11004;SDS011;5555;59.622;16.556;2023-09-19T05:40:38;64.47;;;49.87;;
11004;SDS011;5555;59.622;16.556;2023-09-19T05:43:07;64.67;;;49.70;;
11004;SDS011;5555;59.622;16.556;2023-09-19T05:45:33;69.20;;;51.03;;
11004;SDS011;5555;59.622;16.556;2023-09-19T05:48:07;63.57;;;48.67;;
11004;SDS011;5555;59.622;16.556;2023-09-19T05:50:38;84.83;;;54.90;;
11004;SDS011;5555;59.622;16.556;2023-09-19T05:53:04;59.07;;;48.83;;
11004;SDS011;5555;59.622;16.556;2023-09-19T05:55:31;58.60;;;49.83;;
11004;SDS011;5555;59.622;16.556;2023-09-19T05:57:57;65.53;;;49.67;;
11004;SDS011;5555;59.622;16.556;2023-09-19T06:00:23;55.03;;;47.20;;
11004;SDS011;5555;59.622;16.556;2023-09-19T06:02:55;60.47;;;46.50;;
11004;SDS011;5555;59.622;16.556;2023-09-19T06:05:22;48.67;;;43.37;;
11004;SDS011;5555;59.622;16.556;2023-09-19T06:07:48;53.63;;;44.33;;
11004;SDS011;5555;59.622;16.556;2023-09-19T06:10:16;57.87;;;45.40;;
11004;SDS011;5555;59.622;16.556;2023-09-19T06:12:42;53.07;;;43.30;;
11004;SDS011;5555;59.622;16.556;2023-09-19T06:15:09;57.60;;;45.53;;
11004;SDS011;5555;59.622;16.556;2023-09-19T06:17:40;50.60;;;42.67;;
11004;SDS011;5555;59.622;16.556;2023-09-19T06:20:06;55.63;;;44.73;;
11004;SDS011;5555;59.622;16.556;2023-09-19T06:22:39;48.73;;;40.10;;
11004;SDS011;5555;59.622;16.556;2023-09-19T06:25:06;44.47;;;38.97;;
11004;SDS011;5555;59.622;16.556;2023-09-19T06:27:32;47.17;;;40.73;;
11004;SDS011;5555;59.622;16.556;2023-09-19T06:30:01;47.90;;;40.37;;
11004;SDS011;5555;59.622;16.556;2023-09-19T06:32:27;46.80;;;40.57;;
11004;SDS011;5555;59.622;16.556;2023-09-19T06:34:53;47.37;;;42.20;;
11004;SDS011;5555;59.622;16.556;2023-09-19T06:37:20;50.47;;;41.23;;
11004;SDS011;5555;59.622;16.556;2023-09-19T06:39:47;46.77;;;39.87;;
11004;SDS011;5555;59.622;16.556;2023-09-19T06:42:15;46.37;;;37.33;;
11004;SDS011;5555;59.622;16.556;2023-09-19T06:44:42;44.63;;;39.73;;
11004;SDS011;5555;59.622;16.556;2023-09-19T06:47:08;46.13;;;39.23;;
11004;SDS011;5555;59.622;16.556;2023-09-19T06:49:35;48.67;;;40.53;;
11004;SDS011;5555;59.622;16.556;2023-09-19T06:52:01;43.17;;;38.33;;
11004;SDS011;5555;59.622;16.556;2023-09-19T06:54:27;45.37;;;38.13;;
11004;SDS011;5555;59.622;16.556;2023-09-19T06:56:56;42.20;;;37.33;;
11004;SDS011;5555;59.622;16.556;2023-09-19T06:59:25;47.53;;;38.63;;
11004;SDS011;5555;59.622;16.556;2023-09-19T07:01:51;40.73;;;36.43;;
11004;SDS011;5555;59.622;16.556;2023-09-19T07:04:16;39.57;;;35.37;;
11004;SDS011;5555;59.622;16.556;2023-09-19T07:06:44;38.50;;;33.47;;
11004;SDS011;5555;59.622;16.556;2023-09-19T07:09:16;38.93;;;34.10;;
11004;SDS011;5555;59.622;16.556;2023-09-19T07:11:42;40.27;;;35.93;;
11004;SDS011;5555;59.622;16.556;2023-09-19T07:14:08;35.63;;;31.83;;
11004;SDS011;5555;59.622;16.556;2023-09-19T07:16:36;36.47;;;32.53;;
11004;SDS011;5555;59.622;16.556;2023-09-19T07:19:04;34.90;;;31.17;;
11004;SDS011;5555;59.622;16.556;2023-09-19T07:21:30;34.00;;;30.40;;
11004;SDS011;5555;59.622;16.556;2023-09-19T07:23:55;34.70;;;31.03;;
11004;SDS011;5555;59.622;16.556;2023-09-19T07:26:21;33.90;;;30.53;;
11004;SDS011;5555;59.622;16.556;2023-09-19T07:28:47;33.80;;;29.67;;
11004;SDS011;5555;59.622;16.556;2023-09-19T07:31:12;32.83;;;29.47;;
11004;SDS011;5555;59.622;16.556;2023-09-19T07:33:39;31.73;;;28.33;;
11004;SDS011;5555;59.622;16.556;2023-09-19T07:36:05;31.27;;;28.07;;
11004;SDS011;5555;59.622;16.556;2023-09-19T07:38:36;31.37;;;28.27;;
11004;SDS011;5555;59.622;16.556;2023-09-19T07:41:02;30.03;;;26.83;;
11004;SDS011;5555;59.622;16.556;2023-09-19T07:43:28;32.20;;;28.97;;
11004;SDS011;5555;59.622;16.556;2023-09-19T07:45:54;30.00;;;27.07;;
11004;SDS011;5555;59.622;16.556;2023-09-19T07:48:19;29.00;;;25.93;;
11004;SDS011;5555;59.622;16.556;2023-09-19T07:50:45;29.50;;;26.47;;
11004;SDS011;5555;59.622;16.556;2023-09-19T07:53:11;29.90;;;26.60;;
11004;SDS011;5555;59.622;16.556;2023-09-19T07:55:40;29.37;;;26.47;;
11004;SDS011;5555;59.622;16.556;2023-09-19T07:58:06;28.90;;;26.20;;
11004;SDS011;5555;59.622;16.556;2023-09-19T08:00:32;28.50;;;25.80;;
11004;SDS011;5555;59.622;16.556;2023-09-19T08:02:59;27.17;;;24.50;;
11004;SDS011;5555;59.622;16.556;2023-09-19T08:05:26;25.40;;;23.10;;
11004;SDS011;5555;59.622;16.556;2023-09-19T08:07:52;27.17;;;24.40;;
11004;SDS011;5555;59.622;16.556;2023-09-19T08:10:19;26.47;;;24.03;;
11004;SDS011;5555;59.622;16.556;2023-09-19T08:12:46;24.97;;;22.47;;
11004;SDS011;5555;59.622;16.556;2023-09-19T08:17:42;22.73;;;20.63;;
11004;SDS011;5555;59.622;16.556;2023-09-19T08:20:09;21.57;;;19.43;;
11004;SDS011;5555;59.622;16.556;2023-09-19T08:22:43;20.37;;;18.37;;
11004;SDS011;5555;59.622;16.556;2023-09-19T08:25:13;20.03;;;18.10;;
11004;SDS011;5555;59.622;16.556;2023-09-19T08:27:39;20.83;;;18.97;;
11004;SDS011;5555;59.622;16.556;2023-09-19T08:30:05;18.30;;;16.50;;
11004;SDS011;5555;59.622;16.556;2023-09-19T08:32:31;16.90;;;15.37;;
11004;SDS011;5555;59.622;16.556;2023-09-19T08:34:57;17.53;;;15.70;;
11004;SDS011;5555;59.622;16.556;2023-09-19T08:37:22;17.97;;;16.07;;
11004;SDS011;5555;59.622;16.556;2023-09-19T08:39:48;13.93;;;12.53;;
11004;SDS011;5555;59.622;16.556;2023-09-19T08:42:14;18.47;;;13.17;;
11004;SDS011;5555;59.622;16.556;2023-09-19T08:44:41;15.17;;;12.83;;
11004;SDS011;5555;59.622;16.556;2023-09-19T08:47:09;13.53;;;12.23;;
11004;SDS011;5555;59.622;16.556;2023-09-19T08:52:40;11.67;;;10.50;;
11004;SDS011;5555;59.622;16.556;2023-09-19T08:55:07;12.20;;;10.87;;
11004;SDS011;5555;59.622;16.556;2023-09-19T08:57:37;11.33;;;10.07;;
11004;SDS011;5555;59.622;16.556;2023-09-19T09:00:07;13.13;;;11.77;;
11004;SDS011;5555;59.622;16.556;2023-09-19T09:02:40;11.43;;;10.13;;
11004;SDS011;5555;59.622;16.556;2023-09-19T09:05:08;12.77;;;10.17;;
11004;SDS011;5555;59.622;16.556;2023-09-19T09:07:39;10.67;;;9.73;;
11004;SDS011;5555;59.622;16.556;2023-09-19T09:10:06;10.07;;;9.07;;
11004;SDS011;5555;59.622;16.556;2023-09-19T09:12:32;9.53;;;8.63;;
11004;SDS011;5555;59.622;16.556;2023-09-19T09:15:02;8.90;;;8.13;;
11004;SDS011;5555;59.622;16.556;2023-09-19T09:17:29;8.77;;;7.80;;
11004;SDS011;5555;59.622;16.556;2023-09-19T09:19:54;8.00;;;7.30;;
11004;SDS011;5555;59.622;16.556;2023-09-19T09:22:21;8.40;;;7.60;;
11004;SDS011;5555;59.622;16.556;2023-09-19T09:27:19;7.70;;;6.93;;
11004;SDS011;5555;59.622;16.556;2023-09-19T09:29:47;7.87;;;5.97;;
11004;SDS011;5555;59.622;16.556;2023-09-19T09:32:20;10.37;;;6.50;;
11004;SDS011;5555;59.622;16.556;2023-09-19T09:34:48;6.97;;;6.37;;
11004;SDS011;5555;59.622;16.556;2023-09-19T09:37:19;6.87;;;6.17;;
11004;SDS011;5555;59.622;16.556;2023-09-19T09:40:01;7.13;;;6.00;;
11004;SDS011;5555;59.622;16.556;2023-09-19T09:42:53;7.13;;;5.80;;
11004;SDS011;5555;59.622;16.556;2023-09-19T09:45:24;5.23;;;4.73;;
11004;SDS011;5555;59.622;16.556;2023-09-19T09:47:59;5.20;;;4.70;;
11004;SDS011;5555;59.622;16.556;2023-09-19T09:50:32;7.73;;;5.77;;
11004;SDS011;5555;59.622;16.556;2023-09-19T09:53:25;6.10;;;4.00;;
11004;SDS011;5555;59.622;16.556;2023-09-19T09:55:57;3.30;;;3.00;;
11004;SDS011;5555;59.622;16.556;2023-09-19T09:58:26;4.13;;;2.53;;
11004;SDS011;5555;59.622;16.556;2023-09-19T10:00:57;3.80;;;2.50;;
11004;SDS011;5555;59.622;16.556;2023-09-19T10:03:35;3.17;;;2.43;;
11004;SDS011;5555;59.622;16.556;2023-09-19T10:06:05;5.83;;;2.50;;
11004;SDS011;5555;59.622;16.556;2023-09-19T10:08:36;3.77;;;2.80;;
11004;SDS011;5555;59.622;16.556;2023-09-19T10:11:13;4.40;;;2.70;;
11004;SDS011;5555;59.622;16.556;2023-09-19T10:13:41;3.83;;;2.50;;
11004;SDS011;5555;59.622;16.556;2023-09-19T10:16:08;3.27;;;2.40;;
11004;SDS011;5555;59.622;16.556;2023-09-19T10:18:36;2.27;;;2.07;;
11004;SDS011;5555;59.622;16.556;2023-09-19T10:21:04;3.40;;;2.73;;
11004;SDS011;5555;59.622;16.556;2023-09-19T10:23:31;2.77;;;2.57;;
11004;SDS011;5555;59.622;16.556;2023-09-19T10:25:59;3.30;;;2.83;;
11004;SDS011;5555;59.622;16.556;2023-09-19T10:28:27;3.97;;;2.40;;
11004;SDS011;5555;59.622;16.556;2023-09-19T10:30:55;4.73;;;2.70;;
11004;SDS011;5555;59.622;16.556;2023-09-19T10:33:24;3.43;;;2.70;;
11004;SDS011;5555;59.622;16.556;2023-09-19T10:35:55;3.20;;;2.40;;
11004;SDS011;5555;59.622;16.556;2023-09-19T10:38:25;6.03;;;2.77;;
11004;SDS011;5555;59.622;16.556;2023-09-19T10:40:53;4.77;;;2.90;;
11004;SDS011;5555;59.622;16.556;2023-09-19T10:43:25;2.80;;;2.30;;
11004;SDS011;5555;59.622;16.556;2023-09-19T10:45:55;4.30;;;2.73;;
11004;SDS011;5555;59.622;16.556;2023-09-19T10:48:26;5.67;;;2.33;;
11004;SDS011;5555;59.622;16.556;2023-09-19T10:53:47;2.43;;;1.73;;
11004;SDS011;5555;59.622;16.556;2023-09-19T10:56:25;3.47;;;2.03;;
11004;SDS011;5555;59.622;16.556;2023-09-19T10:59:05;1.97;;;1.70;;
11004;SDS011;5555;59.622;16.556;2023-09-19T11:01:45;3.17;;;1.40;;
11004;SDS011;5555;59.622;16.556;2023-09-19T11:04:31;2.90;;;1.17;;
11004;SDS011;5555;59.622;16.556;2023-09-19T11:09:46;2.57;;;1.00;;
11004;SDS011;5555;59.622;16.556;2023-09-19T11:12:47;2.13;;;0.97;;
11004;SDS011;5555;59.622;16.556;2023-09-19T11:16:03;3.27;;;1.00;;
11004;SDS011;5555;59.622;16.556;2023-09-19T11:26:49;1.00;;;0.87;;
11004;SDS011;5555;59.622;16.556;2023-09-19T11:29:26;2.57;;;0.73;;
11004;SDS011;5555;59.622;16.556;2023-09-19T11:31:53;1.63;;;0.87;;
11004;SDS011;5555;59.622;16.556;2023-09-19T11:39:39;1.83;;;0.87;;
11004;SDS011;5555;59.622;16.556;2023-09-19T11:48:12;2.37;;;0.80;;
11004;SDS011;5555;59.622;16.556;2023-09-19T11:50:41;1.70;;;1.00;;
11004;SDS011;5555;59.622;16.556;2023-09-19T11:53:09;2.03;;;1.17;;
11004;SDS011;5555;59.622;16.556;2023-09-19T11:55:37;3.40;;;1.00;;
11004;SDS011;5555;59.622;16.556;2023-09-19T11:58:04;2.17;;;1.30;;
11004;SDS011;5555;59.622;16.556;2023-09-19T12:00:32;2.27;;;1.20;;
11004;SDS011;5555;59.622;16.556;2023-09-19T12:03:00;3.63;;;1.03;;
11004;SDS011;5555;59.622;16.556;2023-09-19T12:05:31;2.27;;;0.97;;
11004;SDS011;5555;59.622;16.556;2023-09-19T12:07:58;2.83;;;1.00;;
11004;SDS011;5555;59.622;16.556;2023-09-19T12:10:24;2.37;;;1.00;;
11004;SDS011;5555;59.622;16.556;2023-09-19T12:12:50;2.73;;;1.13;;
11004;SDS011;5555;59.622;16.556;2023-09-19T12:15:24;2.40;;;0.80;;
11004;SDS011;5555;59.622;16.556;2023-09-19T12:17:59;1.87;;;1.17;;
11004;SDS011;5555;59.622;16.556;2023-09-19T12:20:25;1.43;;;1.00;;
11004;SDS011;5555;59.622;16.556;2023-09-19T12:23:09;2.37;;;0.93;;
11004;SDS011;5555;59.622;16.556;2023-09-19T12:25:45;2.23;;;0.90;;
11004;SDS011;5555;59.622;16.556;2023-09-19T12:28:12;3.20;;;1.20;;
11004;SDS011;5555;59.622;16.556;2023-09-19T12:30:46;2.13;;;1.30;;
11004;SDS011;5555;59.622;16.556;2023-09-19T12:33:16;2.00;;;1.20;;
11004;SDS011;5555;59.622;16.556;2023-09-19T12:35:44;3.93;;;1.50;;
11004;SDS011;5555;59.622;16.556;2023-09-19T12:38:10;1.67;;;1.07;;
11004;SDS011;5555;59.622;16.556;2023-09-19T12:40:37;2.70;;;1.33;;
11004;SDS011;5555;59.622;16.556;2023-09-19T12:43:07;2.27;;;1.27;;
11004;SDS011;5555;59.622;16.556;2023-09-19T12:45:34;3.67;;;1.30;;
11004;SDS011;5555;59.622;16.556;2023-09-19T12:48:20;2.57;;;0.97;;
11004;SDS011;5555;59.622;16.556;2023-09-19T12:53:44;6.10;;;1.40;;
11004;SDS011;5555;59.622;16.556;2023-09-19T12:56:17;17.97;;;1.63;;
11004;SDS011;5555;59.622;16.556;2023-09-19T13:01:24;4.57;;;1.70;;
11004;SDS011;5555;59.622;16.556;2023-09-19T13:06:45;4.53;;;1.67;;
11004;SDS011;5555;59.622;16.556;2023-09-19T13:09:13;6.73;;;1.50;;
11004;SDS011;5555;59.622;16.556;2023-09-19T13:11:40;2.67;;;1.37;;
11004;SDS011;5555;59.622;16.556;2023-09-19T13:14:25;4.23;;;1.50;;
11004;SDS011;5555;59.622;16.556;2023-09-19T13:17:06;5.83;;;1.60;;
11004;SDS011;5555;59.622;16.556;2023-09-19T13:19:42;4.37;;;1.80;;
11004;SDS011;5555;59.622;16.556;2023-09-19T13:25:08;3.10;;;1.60;;
11004;SDS011;5555;59.622;16.556;2023-09-19T13:27:39;3.33;;;1.60;;
11004;SDS011;5555;59.622;16.556;2023-09-19T13:30:09;2.37;;;1.50;;
11004;SDS011;5555;59.622;16.556;2023-09-19T13:32:36;2.87;;;1.63;;
11004;SDS011;5555;59.622;16.556;2023-09-19T13:35:02;3.07;;;1.40;;
11004;SDS011;5555;59.622;16.556;2023-09-19T13:37:30;5.43;;;1.77;;
11004;SDS011;5555;59.622;16.556;2023-09-19T13:39:56;4.37;;;1.83;;
11004;SDS011;5555;59.622;16.556;2023-09-19T13:42:23;2.47;;;1.30;;
11004;SDS011;5555;59.622;16.556;2023-09-19T13:44:50;4.47;;;2.10;;
11004;SDS011;5555;59.622;16.556;2023-09-19T13:47:16;3.63;;;1.90;;
11004;SDS011;5555;59.622;16.556;2023-09-19T13:49:49;4.50;;;1.97;;
11004;SDS011;5555;59.622;16.556;2023-09-19T13:52:17;7.07;;;1.93;;
11004;SDS011;5555;59.622;16.556;2023-09-19T13:54:48;5.50;;;2.00;;
11004;SDS011;5555;59.622;16.556;2023-09-19T13:57:17;4.00;;;1.73;;
11004;SDS011;5555;59.622;16.556;2023-09-19T13:59:43;4.33;;;1.90;;
11004;SDS011;5555;59.622;16.556;2023-09-19T14:02:09;3.50;;;1.70;;
11004;SDS011;5555;59.622;16.556;2023-09-19T14:04:35;3.30;;;1.40;;
11004;SDS011;5555;59.622;16.556;2023-09-19T14:07:01;3.43;;;1.63;;
11004;SDS011;5555;59.622;16.556;2023-09-19T14:09:27;5.00;;;1.70;;
11004;SDS011;5555;59.622;16.556;2023-09-19T14:11:52;4.07;;;1.93;;
11004;SDS011;5555;59.622;16.556;2023-09-19T14:14:18;3.17;;;1.70;;
11004;SDS011;5555;59.622;16.556;2023-09-19T14:16:45;5.47;;;1.50;;
11004;SDS011;5555;59.622;16.556;2023-09-19T14:19:11;2.57;;;1.53;;
11004;SDS011;5555;59.622;16.556;2023-09-19T14:21:36;4.83;;;2.00;;
11004;SDS011;5555;59.622;16.556;2023-09-19T14:24:04;5.27;;;1.90;;
11004;SDS011;5555;59.622;16.556;2023-09-19T14:26:34;5.53;;;1.73;;
11004;SDS011;5555;59.622;16.556;2023-09-19T14:29:03;2.47;;;1.50;;
11004;SDS011;5555;59.622;16.556;2023-09-19T14:31:29;4.00;;;1.67;;
11004;SDS011;5555;59.622;16.556;2023-09-19T14:33:55;4.30;;;1.80;;
11004;SDS011;5555;59.622;16.556;2023-09-19T14:36:24;3.80;;;1.50;;
11004;SDS011;5555;59.622;16.556;2023-09-19T14:38:52;3.57;;;1.70;;
11004;SDS011;5555;59.622;16.556;2023-09-19T14:41:22;4.97;;;1.57;;
11004;SDS011;5555;59.622;16.556;2023-09-19T14:43:50;3.60;;;1.70;;
11004;SDS011;5555;59.622;16.556;2023-09-19T14:46:16;3.67;;;1.63;;
11004;SDS011;5555;59.622;16.556;2023-09-19T14:48:43;6.50;;;2.10;;
11004;SDS011;5555;59.622;16.556;2023-09-19T14:51:12;4.83;;;2.03;;
11004;SDS011;5555;59.622;16.556;2023-09-19T14:53:39;6.20;;;1.90;;
11004;SDS011;5555;59.622;16.556;2023-09-19T14:56:07;6.03;;;2.07;;
11004;SDS011;5555;59.622;16.556;2023-09-19T14:58:34;3.80;;;1.60;;
11004;SDS011;5555;59.622;16.556;2023-09-19T15:01:10;4.27;;;1.50;;
11004;SDS011;5555;59.622;16.556;2023-09-19T15:03:37;2.60;;;1.30;;
11004;SDS011;5555;59.622;16.556;2023-09-19T15:06:11;2.03;;;1.10;;
11004;SDS011;5555;59.622;16.556;2023-09-19T15:08:39;1.57;;;0.83;;
11004;SDS011;5555;59.622;16.556;2023-09-19T15:11:11;1.80;;;0.93;;
11004;SDS011;5555;59.622;16.556;2023-09-19T15:13:37;1.33;;;0.90;;
11004;SDS011;5555;59.622;16.556;2023-09-19T15:16:04;1.33;;;1.00;;
11004;SDS011;5555;59.622;16.556;2023-09-19T15:18:33;2.27;;;0.80;;
11004;SDS011;5555;59.622;16.556;2023-09-19T15:21:02;1.83;;;1.10;;
11004;SDS011;5555;59.622;16.556;2023-09-19T15:23:38;2.43;;;0.80;;
11004;SDS011;5555;59.622;16.556;2023-09-19T15:26:07;2.50;;;0.57;;
11004;SDS011;5555;59.622;16.556;2023-09-19T15:28:33;1.43;;;0.70;;
11004;SDS011;5555;59.622;16.556;2023-09-19T15:33:25;1.67;;;0.90;;
11004;SDS011;5555;59.622;16.556;2023-09-19T15:35:59;2.23;;;0.70;;
11004;SDS011;5555;59.622;16.556;2023-09-19T15:38:55;0.80;;;0.60;;
11004;SDS011;5555;59.622;16.556;2023-09-19T15:41:22;1.90;;;0.70;;
11004;SDS011;5555;59.622;16.556;2023-09-19T15:43:58;1.10;;;0.50;;
11004;SDS011;5555;59.622;16.556;2023-09-19T15:46:26;2.30;;;0.80;;
11004;SDS011;5555;59.622;16.556;2023-09-19T15:48:52;3.13;;;1.00;;